Time;durP1;ratioP1;P1;durP2;ratioP2;P2;SDS_P1;SDS_P2;PMS_P1;PMS_P2;Temp;Humidity;BMP_temperature;BMP_pressure;BME280_temperature;BME280_humidity;BME280_pressure;Samples;Min_cycle;Max_cycle;Signal;HPM_P1;HPM_P2
2022/09/23 00:00:27;;;;;;;2.53;1.80;;;;;;;7.93;86.67;102082.19;4992057;28;20277;-75
2022/09/23 00:02:53;;;;;;;2.30;1.57;;;;;;;7.88;86.76;102091.31;4987369;28;20556;-75
2022/09/23 00:05:18;;;;;;;1.83;1.60;;;;;;;7.90;86.51;102087.13;4990437;28;20206;-76
2022/09/23 00:07:43;;;;;;;2.57;1.50;;;;;;;7.85;87.68;102084.38;4990423;28;20184;-76
2022/09/23 00:10:09;;;;;;;2.70;1.80;;;;;;;7.83;86.90;102074.91;4998433;28;20183;-75
2022/09/23 00:12:35;;;;;;;2.90;1.70;;;;;;;7.84;87.69;102074.94;4987957;28;20206;-75
2022/09/23 00:15:00;;;;;;;2.93;1.50;;;;;;;7.77;86.58;102072.91;4997671;28;20257;-76
2022/09/23 00:17:26;;;;;;;3.97;1.80;;;;;;;7.77;87.79;102067.81;4982375;28;20243;-76
2022/09/23 00:19:54;;;;;;;2.03;1.70;;;;;;;7.78;87.04;102072.09;4981197;28;20220;-75
2022/09/23 00:22:20;;;;;;;3.67;1.60;;;;;;;7.77;87.34;102061.81;4985225;28;20206;-76
2022/09/23 00:24:45;;;;;;;1.67;1.53;;;;;;;7.72;87.07;102066.72;4986416;28;20222;-75
2022/09/23 00:27:11;;;;;;;1.80;1.60;;;;;;;7.71;87.65;102064.97;4993824;28;20192;-76
2022/09/23 00:29:37;;;;;;;2.60;1.60;;;;;;;7.74;87.04;102069.34;4993643;28;20222;-76
2022/09/23 00:32:03;;;;;;;3.50;1.50;;;;;;;7.69;87.79;102069.09;4997422;28;20238;-76
2022/09/23 00:34:28;;;;;;;2.20;1.50;;;;;;;7.66;87.19;102066.41;4998422;28;20203;-76
2022/09/23 00:36:55;;;;;;;2.80;1.47;;;;;;;7.66;87.49;102062.97;4999188;28;20184;-75
2022/09/23 00:39:22;;;;;;;2.77;1.80;;;;;;;7.68;86.91;102058.81;4996665;28;20219;-76
2022/09/23 00:41:48;;;;;;;2.43;1.57;;;;;;;7.64;88.24;102060.34;4999434;28;20207;-76
2022/09/23 00:44:38;;;;;;;2.30;1.73;;;;;;;7.62;87.79;102061.06;5002402;28;20214;-76
2022/09/23 00:47:03;;;;;;;1.70;1.40;;;;;;;7.62;87.61;102055.97;4994887;28;20233;-75
2022/09/23 00:49:29;;;;;;;1.70;1.47;;;;;;;7.62;87.71;102058.50;4994061;28;20263;-76
2022/09/23 00:52:05;;;;;;;1.90;1.70;;;;;;;7.57;88.19;102055.75;4993102;28;20229;-76
2022/09/23 00:54:31;;;;;;;2.23;1.40;;;;;;;7.55;88.72;102054.78;4994838;28;20202;-75
2022/09/23 00:56:58;;;;;;;3.20;1.40;;;;;;;7.56;87.74;102050.56;4998716;28;20220;-75
2022/09/23 00:59:25;;;;;;;2.30;1.80;;;;;;;7.51;88.52;102052.00;5003344;28;20273;-76
2022/09/23 01:01:54;;;;;;;1.93;1.73;;;;;;;7.50;88.49;102047.69;4998858;28;20220;-75
2022/09/23 01:04:22;;;;;;;2.53;1.57;;;;;;;7.48;87.87;102039.09;4996134;28;20673;-75
2022/09/23 01:06:48;;;;;;;1.53;1.33;;;;;;;7.47;87.86;102037.34;4995003;28;20545;-76
2022/09/23 01:09:14;;;;;;;1.57;1.47;;;;;;;7.44;88.52;102044.84;4999132;28;20199;-75
2022/09/23 01:11:56;;;;;;;2.00;1.70;;;;;;;7.45;87.74;102029.63;5003596;28;20210;-75
2022/09/23 01:15:05;;;;;;;2.70;1.43;;;;;;;7.41;88.17;102034.50;4991981;28;20184;-77
2022/09/23 01:17:55;;;;;;;2.07;1.87;;;;;;;7.39;88.09;102026.78;4938017;29;20216;-76
2022/09/23 01:20:29;;;;;;;2.27;1.47;;;;;;;7.39;88.68;102023.34;5000072;28;20199;-76
2022/09/23 01:23:10;;;;;;;3.00;1.60;;;;;;;7.35;88.25;102018.88;4990425;28;20274;-75
2022/09/23 01:25:54;;;;;;;2.20;1.63;;;;;;;7.34;89.04;102019.69;5005318;28;20218;-76
2022/09/23 01:28:32;;;;;;;2.93;1.60;;;;;;;7.33;88.88;102016.25;4990383;28;20214;-75
2022/09/23 01:31:12;;;;;;;3.83;1.67;;;;;;;7.34;88.73;102009.50;5000755;28;20243;-75
2022/09/23 01:34:10;;;;;;;2.40;1.53;;;;;;;7.32;88.65;102009.41;5004745;28;20233;-75
2022/09/23 01:36:44;;;;;;;3.60;1.47;;;;;;;7.30;88.17;102007.59;4995520;28;20666;-75
2022/09/23 01:39:24;;;;;;;2.87;1.60;;;;;;;7.27;88.70;102008.31;4996760;28;20589;-75
2022/09/23 01:41:59;;;;;;;2.67;1.53;;;;;;;7.29;87.64;102005.84;4986494;28;20277;-76
2022/09/23 01:44:29;;;;;;;1.73;1.63;;;;;;;7.26;88.06;102006.56;4988431;28;20205;-75
2022/09/23 01:47:13;;;;;;;2.43;1.33;;;;;;;7.26;88.95;102005.69;4988891;28;20187;-76
2022/09/23 01:49:54;;;;;;;2.03;1.60;;;;;;;7.25;89.01;102009.03;5001211;28;20224;-76
2022/09/23 01:52:27;;;;;;;2.30;1.60;;;;;;;7.28;88.70;101997.31;4992521;28;20295;-76
2022/09/23 01:55:11;;;;;;;2.27;1.53;;;;;;;7.33;88.75;101998.44;4997851;28;20187;-76
2022/09/23 01:57:59;;;;;;;2.30;1.80;;;;;;;7.33;89.18;102000.97;5017511;28;20526;-76
2022/09/23 02:00:30;;;;;;;3.37;1.60;;;;;;;7.39;89.21;101998.75;4990295;28;20838;-75
2022/09/23 02:03:51;;;;;;;2.00;1.70;;;;;;;7.42;89.14;101993.78;4994482;28;20202;-75
2022/09/23 02:06:26;;;;;;;3.13;1.30;;;;;;;7.47;89.05;101996.59;4995219;28;20202;-76
2022/09/23 02:08:56;;;;;;;2.23;1.60;;;;;;;7.50;89.32;101989.06;4997403;28;20179;-76
2022/09/23 02:11:22;;;;;;;2.30;1.60;;;;;;;7.52;90.16;101980.75;4997382;28;20215;-76
2022/09/23 02:14:03;;;;;;;1.70;1.53;;;;;;;7.55;90.43;101982.56;4992645;28;20187;-76
2022/09/23 02:17:01;;;;;;;2.23;1.63;;;;;;;7.60;90.04;101974.31;4995295;28;20199;-75
2022/09/23 02:19:39;;;;;;;1.60;1.27;;;;;;;7.62;91.00;101969.31;4987644;28;20215;-76
2022/09/23 02:22:14;;;;;;;2.20;2.00;;;;;;;7.66;90.26;101972.09;4993496;28;20803;-76
2022/09/23 02:24:39;;;;;;;2.73;1.73;;;;;;;7.69;90.44;101964.59;4992700;28;20187;-76
2022/09/23 02:27:17;;;;;;;2.63;1.80;;;;;;;7.72;90.29;101964.75;4988975;28;20207;-75
2022/09/23 02:30:13;;;;;;;3.30;1.90;;;;;;;7.76;90.07;101963.22;4999341;28;20649;-76
2022/09/23 02:32:47;;;;;;;2.13;1.93;;;;;;;7.80;90.78;101958.34;4985870;28;20204;-75
2022/09/23 02:35:31;;;;;;;1.77;1.60;;;;;;;7.80;90.81;101955.81;4993919;28;20218;-76
2022/09/23 02:38:22;;;;;;;2.90;1.63;;;;;;;7.82;91.04;101958.41;5005622;28;20204;-76
2022/09/23 02:40:57;;;;;;;3.43;1.80;;;;;;;7.84;90.04;101959.38;4990860;28;20204;-76
2022/09/23 02:43:32;;;;;;;2.63;1.60;;;;;;;7.88;90.89;101954.47;4996779;28;20758;-76
2022/09/23 02:45:59;;;;;;;1.77;1.40;;;;;;;7.94;90.88;101949.69;4985224;28;20273;-75
2022/09/23 02:48:49;;;;;;;3.10;1.93;;;;;;;7.97;90.68;101943.84;4986747;28;20216;-75
2022/09/23 02:51:15;;;;;;;2.63;1.97;;;;;;;8.03;90.14;101950.13;4990836;28;20888;-76
2022/09/23 02:53:40;;;;;;;4.17;1.73;;;;;;;8.06;90.27;101937.50;4988558;28;20192;-76
2022/09/23 02:56:15;;;;;;;2.23;1.80;;;;;;;8.09;89.89;101935.09;4983500;28;20194;-76
2022/09/23 02:58:40;;;;;;;5.57;1.97;;;;;;;8.15;90.72;101934.50;4985772;28;20211;-76
2022/09/23 03:01:09;;;;;;;2.00;1.80;;;;;;;8.20;90.25;101938.16;4984324;28;20253;-76
2022/09/23 03:04:05;;;;;;;2.83;2.30;;;;;;;8.22;90.81;101936.56;4986248;28;20567;-77
2022/09/23 03:06:50;;;;;;;2.63;1.80;;;;;;;8.25;90.20;101929.06;4979385;28;20200;-76
2022/09/23 03:09:50;;;;;;;4.30;2.10;;;;;;;8.29;90.96;101930.94;4979623;28;20279;-76
2022/09/23 03:12:30;;;;;;;1.90;1.70;;;;;;;8.31;90.35;101926.78;4984014;28;20213;-76
2022/09/23 03:15:25;;;;;;;3.27;1.90;;;;;;;8.34;90.14;101929.47;4975523;28;20199;-76
2022/09/23 03:18:19;;;;;;;3.10;1.90;;;;;;;8.41;89.64;101926.38;4983065;28;20271;-76
2022/09/23 03:20:56;;;;;;;3.10;1.80;;;;;;;8.42;90.19;101923.03;4991898;28;20208;-76
2022/09/23 03:23:38;;;;;;;4.50;2.10;;;;;;;8.46;89.96;101915.59;4972995;28;20188;-76
2022/09/23 03:26:09;;;;;;;2.47;1.80;;;;;;;8.50;89.51;101920.03;4978177;28;20196;-76
2022/09/23 03:28:41;;;;;;;2.37;1.87;;;;;;;8.52;89.36;101915.00;4979014;28;20276;-76
2022/09/23 03:31:07;;;;;;;2.10;1.90;;;;;;;8.55;88.77;101912.56;4990476;28;20302;-76
2022/09/23 03:33:35;;;;;;;2.03;1.77;;;;;;;8.55;89.70;101903.25;4979774;28;20270;-76
2022/09/23 03:39:02;;;;;;;2.67;1.83;;;;;;;8.61;90.14;101910.31;4979605;28;20577;-76
2022/09/23 03:41:35;;;;;;;4.20;2.23;;;;;;;8.62;89.35;101906.94;4985532;28;20652;-77
2022/09/23 03:44:01;;;;;;;4.40;2.00;;;;;;;8.68;88.80;101904.66;4991804;28;20278;-76
2022/09/23 03:46:28;;;;;;;2.33;1.83;;;;;;;8.68;89.95;101900.41;4980465;28;20281;-76
2022/09/23 03:49:07;;;;;;;2.93;2.03;;;;;;;8.71;89.27;101897.13;4984104;28;20189;-76
2022/09/23 03:51:32;;;;;;;3.03;2.00;;;;;;;8.73;89.33;101893.84;4986265;28;20689;-76
2022/09/23 03:53:57;;;;;;;2.57;1.87;;;;;;;8.73;89.66;101896.38;4983604;28;20295;-76
2022/09/23 03:56:23;;;;;;;2.43;1.70;;;;;;;8.74;89.86;101898.13;4979694;28;20192;-76
2022/09/23 03:58:48;;;;;;;2.63;1.87;;;;;;;8.74;89.81;101893.03;4984762;28;20204;-76
2022/09/23 04:01:14;;;;;;;3.47;2.00;;;;;;;8.75;90.20;101886.25;4988373;28;20210;-76
2022/09/23 04:03:40;;;;;;;3.87;1.70;;;;;;;8.74;89.74;101884.47;4993395;28;20672;-76
2022/09/23 04:06:05;;;;;;;4.23;2.10;;;;;;;8.74;89.27;101885.34;4994608;28;20194;-76
2022/09/23 04:08:31;;;;;;;3.60;2.03;;;;;;;8.74;90.11;101882.81;4998735;28;20534;-76
2022/09/23 04:11:01;;;;;;;3.03;2.03;;;;;;;8.73;89.96;101885.28;4994614;28;20785;-76
2022/09/23 04:13:27;;;;;;;2.87;2.20;;;;;;;8.70;89.79;101878.38;4996614;28;20198;-76
2022/09/23 04:15:53;;;;;;;5.40;2.53;;;;;;;8.72;89.70;101875.88;4990956;28;20270;-76
2022/09/23 04:18:18;;;;;;;2.10;1.90;;;;;;;8.73;89.96;101873.41;4999354;28;20250;-77
2022/09/23 04:20:44;;;;;;;2.87;2.07;;;;;;;8.74;89.47;101874.25;5001785;28;20215;-76
2022/09/23 04:23:09;;;;;;;3.40;2.40;;;;;;;8.75;89.44;101870.94;5000624;28;20239;-76
2022/09/23 04:25:34;;;;;;;2.17;1.80;;;;;;;8.75;89.40;101863.25;5001186;28;20673;-76
2022/09/23 04:28:00;;;;;;;2.87;2.03;;;;;;;8.75;89.62;101861.56;4996220;28;20187;-76
2022/09/23 04:30:25;;;;;;;4.80;2.20;;;;;;;8.74;89.88;101859.81;4999057;28;20270;-76
2022/09/23 04:32:51;;;;;;;2.10;1.90;;;;;;;8.71;89.20;101861.38;5001611;28;20607;-76
2022/09/23 04:35:17;;;;;;;4.50;1.73;;;;;;;8.67;89.79;101856.94;4993921;28;20196;-76
2022/09/23 04:37:43;;;;;;;2.40;2.20;;;;;;;8.68;89.56;101859.56;4989937;28;20206;-76
2022/09/23 04:40:08;;;;;;;2.37;1.93;;;;;;;8.66;89.09;101871.38;5003509;28;20259;-75
2022/09/23 04:42:34;;;;;;;2.73;2.40;;;;;;;8.67;89.38;101856.94;4998789;28;20207;-76
2022/09/23 04:44:59;;;;;;;5.13;2.43;;;;;;;8.68;88.52;101861.25;5001327;28;20206;-76
2022/09/23 04:47:25;;;;;;;2.87;2.03;;;;;;;8.69;88.97;101857.88;5000809;28;20278;-76
2022/09/23 04:49:50;;;;;;;3.63;2.20;;;;;;;8.70;89.58;101859.66;4998180;28;20688;-75
2022/09/23 04:52:15;;;;;;;4.10;2.53;;;;;;;8.72;90.33;101860.56;5000967;28;20298;-76
2022/09/23 04:54:41;;;;;;;3.90;2.20;;;;;;;8.74;90.09;101851.28;4987768;28;20214;-75
2022/09/23 04:57:09;;;;;;;2.30;2.10;;;;;;;8.76;89.56;101847.97;5003865;28;20688;-75
2022/09/23 04:59:36;;;;;;;4.97;2.27;;;;;;;8.82;89.34;101857.59;4998639;28;20241;-75
2022/09/23 05:02:01;;;;;;;2.53;2.17;;;;;;;8.86;89.12;101856.91;5001948;28;20218;-75
2022/09/23 05:04:26;;;;;;;3.30;2.10;;;;;;;8.89;89.72;101857.06;4978845;28;20184;-77
2022/09/23 05:06:52;;;;;;;4.60;2.00;;;;;;;8.89;88.53;101851.97;5003213;28;20203;-77
2022/09/23 05:09:18;;;;;;;4.03;2.03;;;;;;;8.86;89.14;101850.16;4993279;28;20203;-76
2022/09/23 05:11:44;;;;;;;7.80;2.60;;;;;;;8.89;89.36;101849.41;4994064;28;20285;-76
2022/09/23 05:14:09;;;;;;;2.30;2.10;;;;;;;8.89;89.04;101854.50;4990882;28;20199;-76
2022/09/23 05:16:35;;;;;;;3.13;2.10;;;;;;;8.92;89.44;101850.41;4998564;28;20271;-76
2022/09/23 05:19:02;;;;;;;3.70;2.17;;;;;;;8.97;88.95;101848.00;4981274;28;20723;-75
2022/09/23 05:21:27;;;;;;;3.23;2.27;;;;;;;8.98;89.03;101853.19;4973055;28;20216;-75
2022/09/23 05:23:57;;;;;;;2.50;2.10;;;;;;;8.97;88.15;101850.56;4976993;28;20192;-76
2022/09/23 05:26:25;;;;;;;4.10;2.30;;;;;;;9.00;88.32;101856.72;4972148;28;20251;-75
2022/09/23 05:28:51;;;;;;;2.93;2.43;;;;;;;9.02;88.50;101855.06;4977989;28;20198;-76
2022/09/23 05:31:19;;;;;;;4.10;2.40;;;;;;;9.04;88.43;101852.59;4967946;28;20209;-75
2022/09/23 05:33:47;;;;;;;4.47;2.80;;;;;;;9.07;88.53;101851.03;4971813;28;20199;-75
2022/09/23 05:36:14;;;;;;;6.73;2.90;;;;;;;9.12;88.26;101856.34;4967819;28;20189;-76
2022/09/23 05:38:39;;;;;;;6.33;2.40;;;;;;;9.14;88.02;101853.03;4980463;28;20719;-76
2022/09/23 05:41:07;;;;;;;2.53;2.30;;;;;;;9.19;88.31;101848.09;4974330;28;20224;-75
2022/09/23 05:43:34;;;;;;;3.43;2.40;;;;;;;9.23;87.94;101845.75;4974826;28;20185;-75
2022/09/23 05:46:08;;;;;;;2.83;2.23;;;;;;;9.26;87.49;101842.44;4966971;28;20203;-75
2022/09/23 05:48:35;;;;;;;4.33;2.30;;;;;;;9.29;87.40;101843.44;4972498;28;20176;-75
2022/09/23 05:51:01;;;;;;;2.80;2.40;;;;;;;9.34;87.86;101841.94;4964255;28;20200;-76
2022/09/23 05:53:28;;;;;;;2.17;1.80;;;;;;;9.37;88.18;101844.63;4962005;28;20676;-75
2022/09/23 05:55:55;;;;;;;4.37;2.30;;;;;;;9.44;86.72;101836.38;4964534;28;20193;-76
2022/09/23 05:58:22;;;;;;;4.07;2.20;;;;;;;9.51;86.83;101834.94;4958481;28;20205;-76
2022/09/23 06:00:48;;;;;;;4.43;2.17;;;;;;;9.57;86.85;101838.59;4964871;28;20582;-75
2022/09/23 06:03:18;;;;;;;3.57;2.63;;;;;;;9.62;86.16;101834.53;4962679;28;20191;-75
2022/09/23 06:05:43;;;;;;;5.33;2.57;;;;;;;9.71;85.89;101839.13;4968862;28;20207;-76
2022/09/23 06:08:10;;;;;;;4.30;2.23;;;;;;;9.77;86.32;101836.81;4957395;28;20647;-76
2022/09/23 06:10:37;;;;;;;3.60;2.27;;;;;;;9.84;85.09;101837.13;4969444;28;20605;-76
2022/09/23 06:13:02;;;;;;;4.23;2.20;;;;;;;9.90;85.00;101832.22;4957281;28;20212;-76
2022/09/23 06:15:27;;;;;;;3.43;2.57;;;;;;;9.94;84.84;101831.53;4960034;28;20200;-76
2022/09/23 06:17:53;;;;;;;2.67;1.93;;;;;;;10.00;84.87;101833.44;4969147;28;20208;-76
2022/09/23 06:20:18;;;;;;;2.60;2.07;;;;;;;10.07;84.82;101841.44;4977272;28;20223;-76
2022/09/23 06:22:44;;;;;;;2.63;2.10;;;;;;;10.10;83.57;101838.13;4968741;28;20188;-76
2022/09/23 06:25:10;;;;;;;6.17;2.30;;;;;;;10.16;83.21;101840.91;4966758;28;20294;-75
2022/09/23 06:27:35;;;;;;;3.33;2.10;;;;;;;10.20;83.46;101841.09;4976281;28;20216;-76
2022/09/23 06:30:00;;;;;;;3.30;2.50;;;;;;;10.24;83.88;101836.94;4963701;28;20683;-75
2022/09/23 06:32:26;;;;;;;3.00;2.30;;;;;;;10.28;82.83;101843.91;4972858;28;20254;-75
2022/09/23 06:34:51;;;;;;;3.07;2.60;;;;;;;10.32;82.72;101835.53;4964581;28;20243;-75
2022/09/23 06:37:17;;;;;;;3.13;2.50;;;;;;;10.30;82.57;101832.91;4972023;28;20267;-76
2022/09/23 06:39:42;;;;;;;2.60;2.20;;;;;;;10.39;82.44;101838.38;4963291;28;20209;-75
2022/09/23 06:42:08;;;;;;;4.87;2.70;;;;;;;10.47;82.34;101836.94;4993050;28;20242;-76
2022/09/23 06:44:33;;;;;;;5.20;2.30;;;;;;;10.52;82.19;101835.44;4968360;28;20278;-76
2022/09/23 06:46:59;;;;;;;3.30;2.60;;;;;;;10.57;81.94;101835.59;4974649;28;20200;-76
2022/09/23 06:49:25;;;;;;;4.37;2.53;;;;;;;10.59;81.30;101837.38;4968200;28;20316;-76
2022/09/23 06:51:50;;;;;;;4.47;2.90;;;;;;;10.67;81.39;101835.06;4972342;28;20264;-76
2022/09/23 06:54:16;;;;;;;5.03;2.60;;;;;;;10.68;81.05;101839.38;4972142;28;20274;-75
2022/09/23 06:56:46;;;;;;;3.47;2.87;;;;;;;10.73;81.59;101840.44;4970247;28;20192;-76
2022/09/23 06:59:15;;;;;;;4.10;2.43;;;;;;;10.72;81.05;101833.53;4979860;28;20704;-75
2022/09/23 07:01:41;;;;;;;3.47;2.77;;;;;;;10.79;80.82;101830.38;4974284;28;20219;-76
2022/09/23 07:04:09;;;;;;;4.03;2.40;;;;;;;10.80;80.90;101832.13;4958968;28;20189;-76
2022/09/23 07:06:35;;;;;;;5.13;2.50;;;;;;;10.83;80.72;101827.97;4976176;28;20203;-76
2022/09/23 07:09:00;;;;;;;4.17;2.43;;;;;;;10.87;80.64;101837.50;4979204;28;20192;-77
2022/09/23 07:11:25;;;;;;;3.40;2.87;;;;;;;10.97;80.83;101828.44;4970009;28;21036;-76
2022/09/23 07:13:51;;;;;;;4.03;2.77;;;;;;;11.08;80.05;101830.56;4963170;28;20329;-76
2022/09/23 07:16:16;;;;;;;6.67;2.73;;;;;;;11.12;80.23;101827.28;4980943;28;20529;-77
2022/09/23 07:18:42;;;;;;;5.30;2.67;;;;;;;11.02;80.26;101832.88;4953530;28;20769;-77
2022/09/23 07:21:13;;;;;;;4.20;2.60;;;;;;;11.15;80.14;101829.06;4971967;28;20243;-77
2022/09/23 07:23:44;;;;;;;3.13;2.53;;;;;;;11.16;79.49;101841.91;4974271;28;20745;-77
2022/09/23 07:26:10;;;;;;;4.87;2.47;;;;;;;11.51;79.15;101828.53;4976009;28;20283;-75
2022/09/23 07:28:37;;;;;;;2.83;2.53;;;;;;;11.89;78.69;101833.16;4974128;28;20192;-77
2022/09/23 07:31:08;;;;;;;3.57;2.70;;;;;;;12.00;76.85;101831.81;4958887;28;20208;-77
2022/09/23 07:33:36;;;;;;;5.37;2.80;;;;;;;12.20;76.52;101837.50;4982853;28;20679;-77
2022/09/23 07:36:11;;;;;;;2.80;2.60;;;;;;;12.52;76.07;101832.44;4976442;28;20283;-77
2022/09/23 07:38:37;;;;;;;4.73;3.20;;;;;;;12.56;75.54;101830.81;4978200;28;20227;-76
2022/09/23 07:41:05;;;;;;;6.13;4.33;;;;;;;12.57;74.71;101833.44;4974169;28;20223;-77
2022/09/23 07:43:31;;;;;;;3.73;2.70;;;;;;;12.85;74.40;101833.34;4983542;28;20680;-76
2022/09/23 07:46:03;;;;;;;4.33;2.73;;;;;;;13.06;73.53;101829.59;4976250;28;20202;-77
2022/09/23 07:48:29;;;;;;;4.53;3.20;;;;;;;13.11;72.38;101828.88;4982312;28;20184;-77
2022/09/23 07:50:55;;;;;;;6.97;3.07;;;;;;;13.40;70.22;101827.88;4960464;28;20246;-76
2022/09/23 07:53:22;;;;;;;3.80;2.43;;;;;;;13.72;70.56;101823.50;4978983;28;20196;-75
2022/09/23 07:55:54;;;;;;;5.20;3.10;;;;;;;14.06;69.57;101828.53;4977282;28;20222;-77
2022/09/23 07:58:20;;;;;;;3.77;2.80;;;;;;;14.16;68.59;101831.31;4971437;28;21000;-76
2022/09/23 08:00:45;;;;;;;3.53;2.53;;;;;;;14.44;66.95;101827.63;4966729;28;20291;-74
2022/09/23 08:03:11;;;;;;;5.47;2.03;;;;;;;14.91;65.91;101830.25;4970511;28;20185;-75
2022/09/23 08:05:36;;;;;;;4.30;2.47;;;;;;;14.78;64.78;101824.84;4974741;28;20561;-75
2022/09/23 08:08:01;;;;;;;3.90;2.43;;;;;;;14.52;66.09;101828.63;4975233;28;20219;-75
2022/09/23 08:10:27;;;;;;;6.33;2.53;;;;;;;14.92;65.61;101823.38;4978814;28;20193;-75
2022/09/23 08:12:52;;;;;;;6.10;2.77;;;;;;;15.16;65.53;101835.00;4972522;28;20246;-75
2022/09/23 08:15:18;;;;;;;6.00;2.50;;;;;;;15.45;64.59;101826.03;4970724;28;20186;-75
2022/09/23 08:17:43;;;;;;;3.93;2.50;;;;;;;15.47;65.08;101819.16;4965379;28;20191;-75
2022/09/23 08:20:42;;;;;;;4.07;2.27;;;;;;;15.05;64.24;101828.75;4980587;28;20242;-75
2022/09/23 08:22:55;;;;;;;4.67;2.40;;;;;;;15.46;63.91;101824.28;4973825;28;20205;-75
2022/09/23 08:25:22;;;;;;;3.70;2.23;;;;;;;15.56;63.13;101819.31;4957699;28;20205;-75
2022/09/23 08:27:47;;;;;;;3.30;2.50;;;;;;;15.77;62.83;101814.47;4966432;28;20608;-76
2022/09/23 08:30:13;;;;;;;7.57;2.60;;;;;;;16.02;61.94;101823.41;4976023;28;20195;-76
2022/09/23 08:32:38;;;;;;;4.37;2.70;;;;;;;16.04;63.05;101820.00;4971831;28;20212;-76
2022/09/23 08:35:04;;;;;;;5.43;2.50;;;;;;;15.86;61.38;101817.16;4969837;28;20185;-76
2022/09/23 08:37:29;;;;;;;6.73;2.50;;;;;;;16.52;60.66;101812.84;4967574;28;20570;-76
2022/09/23 08:39:55;;;;;;;3.73;2.60;;;;;;;16.63;59.60;101812.97;4967397;28;20216;-76
2022/09/23 08:42:27;;;;;;;3.07;2.40;;;;;;;16.91;58.27;101812.38;4957757;28;20221;-75
2022/09/23 08:44:56;;;;;;;6.07;2.40;;;;;;;17.04;59.18;101812.50;4972253;28;20184;-76
2022/09/23 08:47:38;;;;;;;8.40;2.53;;;;;;;17.48;59.13;101803.38;4967493;28;20197;-76
2022/09/23 08:50:14;;;;;;;6.67;2.03;;;;;;;17.56;57.10;101806.91;4958327;28;20702;-75
2022/09/23 08:52:59;;;;;;;3.20;1.80;;;;;;;17.26;55.92;101803.16;4969524;28;20209;-74
2022/09/23 08:55:58;;;;;;;2.70;2.00;;;;;;;17.49;55.29;101802.53;4950877;28;20206;-75
2022/09/23 08:58:38;;;;;;;9.20;6.97;;;;;;;18.23;54.82;101798.59;4946250;28;20206;-76
2022/09/23 09:01:25;;;;;;;2.87;1.90;;;;;;;18.38;54.34;101790.88;4964882;28;20208;-76
2022/09/23 09:03:54;;;;;;;2.90;2.20;;;;;;;18.27;53.48;101789.09;4957158;28;20188;-75
2022/09/23 09:06:36;;;;;;;3.45;2.10;;;;;;;18.88;52.24;101797.03;4960296;28;20662;-75
2022/09/23 09:09:04;;;;;;;2.88;1.80;;;;;;;18.69;53.48;101784.03;4959962;28;20193;-76
2022/09/23 09:11:37;;;;;;;3.88;1.90;;;;;;;19.60;51.48;101784.03;4960555;28;20215;-76
2022/09/23 09:14:24;;;;;;;2.17;1.95;;;;;;;22.29;44.30;101782.84;4965191;28;20275;-77
2022/09/23 09:17:06;;;;;;;5.82;2.15;;;;;;;24.92;39.18;101769.19;4965054;28;20760;-75
2022/09/23 09:19:41;;;;;;;3.03;1.77;;;;;;;25.51;37.77;101758.91;4972021;28;20658;-75
2022/09/23 09:22:14;;;;;;;3.08;1.80;;;;;;;26.39;35.42;101760.69;4969423;28;20206;-75
2022/09/23 09:24:44;;;;;;;3.05;1.73;;;;;;;27.61;33.66;101762.75;4960905;28;20725;-75
2022/09/23 09:27:12;;;;;;;1.50;1.27;;;;;;;28.32;32.25;101753.03;4966771;28;20199;-75
2022/09/23 09:29:42;;;;;;;2.13;1.60;;;;;;;28.22;32.42;101749.03;4962738;28;20189;-75
2022/09/23 09:32:21;;;;;;;2.95;2.00;;;;;;;29.34;30.92;101751.44;4974630;28;20663;-75
2022/09/23 09:34:56;;;;;;;2.42;2.00;;;;;;;27.35;32.82;101754.91;4961700;28;20623;-75
2022/09/23 09:37:35;;;;;;;2.85;1.50;;;;;;;25.22;36.49;101765.78;4970357;28;20198;-74
2022/09/23 09:40:01;;;;;;;5.95;2.10;;;;;;;24.80;37.56;101752.00;4965524;28;20211;-74
2022/09/23 09:42:38;;;;;;;2.28;1.88;;;;;;;28.85;31.80;101743.88;4979486;28;20720;-75
2022/09/23 09:45:18;;;;;;;2.35;1.85;;;;;;;31.48;28.56;101726.06;4970046;28;20686;-74
2022/09/23 09:48:02;;;;;;;3.45;1.80;;;;;;;32.78;26.29;101728.47;4963615;28;20192;-74
2022/09/23 09:50:43;;;;;;;1.90;1.70;;;;;;;33.19;25.43;101710.94;4975473;28;20199;-74
2022/09/23 09:53:15;;;;;;;4.47;1.77;;;;;;;33.58;25.72;101721.84;4957755;28;20247;-74
2022/09/23 09:55:41;;;;;;;1.55;1.42;;;;;;;31.58;26.32;101729.94;4978825;28;20188;-74
2022/09/23 09:58:12;;;;;;;3.05;1.85;;;;;;;31.33;27.39;101721.59;4995106;28;21094;-74
2022/09/23 10:00:44;;;;;;;4.80;1.70;;;;;;;31.25;28.25;101715.81;4986211;28;20286;-75
2022/09/23 10:03:12;;;;;;;4.25;1.58;;;;;;;29.51;29.93;101719.00;4996421;28;20202;-74
2022/09/23 10:05:51;;;;;;;4.03;1.77;;;;;;;30.61;28.95;101716.47;4982540;28;20184;-74
2022/09/23 10:08:35;;;;;;;3.00;1.52;;;;;;;31.19;27.28;101709.94;4997430;28;20206;-74
2022/09/23 10:11:04;;;;;;;3.13;1.90;;;;;;;32.69;26.70;101707.75;4977583;28;20214;-74
2022/09/23 10:13:30;;;;;;;6.88;2.08;;;;;;;33.77;25.30;101693.16;4997959;28;20198;-74
2022/09/23 10:16:02;;;;;;;2.28;1.50;;;;;;;34.00;24.03;101702.34;4995018;28;20250;-74
2022/09/23 10:18:37;;;;;;;2.55;2.03;;;;;;;33.20;25.16;101696.72;4996024;28;20192;-74
2022/09/23 10:21:08;;;;;;;1.55;1.40;;;;;;;32.99;25.97;101694.50;4998115;28;20206;-74
2022/09/23 10:23:40;;;;;;;3.67;1.90;;;;;;;33.39;26.47;101689.38;4991136;28;20247;-75
2022/09/23 10:26:07;;;;;;;2.70;1.60;;;;;;;34.20;24.41;101678.00;4994682;28;20215;-73
2022/09/23 10:29:17;;;;;;;3.88;1.70;;;;;;;34.54;23.91;101685.47;4999713;28;20221;-72
2022/09/23 10:31:44;;;;;;;4.55;1.65;;;;;;;34.49;24.01;101679.63;4983803;28;20247;-77
2022/09/23 10:34:25;;;;;;;1.90;1.65;;;;;;;34.08;24.26;101678.78;4969004;28;20234;-76
2022/09/23 10:37:14;;;;;;;2.47;1.58;;;;;;;35.31;22.74;101673.06;4984363;28;20672;-75
2022/09/23 10:49:22;;;;;;;2.45;1.35;;;;;;;36.50;20.38;101667.81;4989117;28;20192;-76
2022/09/23 10:52:18;;;;;;;4.05;1.58;;;;;;;34.94;22.02;101666.72;4996536;28;20211;-75
2022/09/23 10:55:05;;;;;;;2.42;1.40;;;;;;;34.95;22.77;101660.44;4975288;28;20287;-75
2022/09/23 10:57:52;;;;;;;2.15;1.73;;;;;;;31.96;24.59;101666.94;5000496;28;20206;-74
2022/09/23 11:00:56;;;;;;;3.55;1.58;;;;;;;30.00;27.78;101674.44;4997984;28;20631;-77
2022/09/23 11:03:57;;;;;;;2.42;1.60;;;;;;;28.97;28.97;101685.28;4994238;28;20190;-78
2022/09/23 11:07:00;;;;;;;2.47;1.10;;;;;;;27.96;29.68;101683.31;4998179;28;20189;-76
2022/09/23 11:09:42;;;;;;;1.92;1.10;;;;;;;28.16;30.19;101679.91;4998823;28;20505;-75
2022/09/23 11:13:12;;;;;;;1.50;1.40;;;;;;;28.84;29.83;101678.84;4994064;28;20231;-76
2022/09/23 11:15:48;;;;;;;3.03;1.20;;;;;;;27.00;30.92;101675.47;4971165;28;20275;-75
2022/09/23 11:18:39;;;;;;;3.75;1.30;;;;;;;27.16;31.97;101674.00;4997456;28;20660;-76
2022/09/23 11:21:31;;;;;;;3.55;1.13;;;;;;;26.65;30.06;101671.41;4995283;28;20278;-74
2022/09/23 11:24:30;;;;;;;3.75;1.23;;;;;;;26.12;32.27;101666.13;4997445;28;20535;-74
2022/09/23 11:27:21;;;;;;;1.65;1.00;;;;;;;26.23;33.28;101659.63;5010014;28;20234;-75
2022/09/23 11:30:15;;;;;;;2.13;1.17;;;;;;;26.34;32.47;101652.25;4997264;28;20200;-75
2022/09/23 11:33:26;;;;;;;2.53;1.20;;;;;;;25.24;31.77;101659.94;4994151;28;20257;-75
2022/09/23 11:36:20;;;;;;;1.98;1.10;;;;;;;25.18;33.21;101651.41;4950092;28;20215;-75
2022/09/23 11:38:49;;;;;;;2.70;1.30;;;;;;;24.37;33.70;101654.34;4990248;28;20229;-75
2022/09/23 11:41:29;;;;;;;1.57;1.20;;;;;;;23.43;35.74;101656.47;4971803;28;20216;-75
2022/09/23 11:44:12;;;;;;;3.13;1.30;;;;;;;23.29;35.55;101648.88;4993644;28;20660;-75
2022/09/23 11:46:54;;;;;;;2.70;1.17;;;;;;;23.38;35.89;101645.22;4973815;28;20602;-75
2022/09/23 11:49:46;;;;;;;1.83;1.10;;;;;;;22.99;34.68;101638.09;4975505;28;20265;-75
2022/09/23 11:52:24;;;;;;;2.37;1.50;;;;;;;23.51;34.43;101638.84;4991119;28;20204;-74
2022/09/23 11:55:18;;;;;;;4.40;1.30;;;;;;;23.22;35.95;101644.66;4994610;28;20203;-74
2022/09/23 11:58:03;;;;;;;2.23;1.10;;;;;;;22.42;37.57;101632.97;4985040;28;20203;-74
2022/09/23 12:00:52;;;;;;;1.40;1.03;;;;;;;22.21;36.45;101638.53;4982661;28;20635;-74
2022/09/23 12:03:59;;;;;;;3.03;1.50;;;;;;;21.74;37.54;101632.28;4987415;28;20203;-74
2022/09/23 12:06:35;;;;;;;1.30;1.00;;;;;;;21.96;38.49;101633.69;4991142;28;20199;-74
2022/09/23 12:09:11;;;;;;;1.93;1.37;;;;;;;21.68;37.83;101625.38;4988318;28;20190;-73